sensor_id;sensor_type;location;lat;lon;timestamp;P1;durP1;ratioP1;P2;durP2;ratioP2
15142;SDS011;7672;50.834;6.286;2023-05-20T00:01:43;12.27;;;3.00;;
15142;SDS011;7672;50.834;6.286;2023-05-20T00:04:10;13.83;;;3.10;;
15142;SDS011;7672;50.834;6.286;2023-05-20T00:06:37;12.73;;;3.20;;
15142;SDS011;7672;50.834;6.286;2023-05-20T00:09:04;7.83;;;3.07;;
15142;SDS011;7672;50.834;6.286;2023-05-20T00:11:32;7.07;;;2.27;;
15142;SDS011;7672;50.834;6.286;2023-05-20T00:13:59;14.60;;;3.50;;
15142;SDS011;7672;50.834;6.286;2023-05-20T00:16:26;8.33;;;3.23;;
15142;SDS011;7672;50.834;6.286;2023-05-20T00:18:53;11.77;;;2.73;;
15142;SDS011;7672;50.834;6.286;2023-05-20T00:21:22;12.50;;;3.27;;
15142;SDS011;7672;50.834;6.286;2023-05-20T00:23:49;12.57;;;2.60;;
15142;SDS011;7672;50.834;6.286;2023-05-20T00:26:16;13.50;;;3.10;;
15142;SDS011;7672;50.834;6.286;2023-05-20T00:28:50;6.90;;;2.27;;
15142;SDS011;7672;50.834;6.286;2023-05-20T00:31:17;6.90;;;2.90;;
15142;SDS011;7672;50.834;6.286;2023-05-20T00:33:45;8.40;;;2.30;;
15142;SDS011;7672;50.834;6.286;2023-05-20T00:36:12;7.17;;;2.40;;
15142;SDS011;7672;50.834;6.286;2023-05-20T00:38:39;8.17;;;2.60;;
15142;SDS011;7672;50.834;6.286;2023-05-20T00:41:06;6.43;;;3.13;;
15142;SDS011;7672;50.834;6.286;2023-05-20T00:43:33;12.90;;;3.20;;
15142;SDS011;7672;50.834;6.286;2023-05-20T00:46:00;8.20;;;3.10;;
15142;SDS011;7672;50.834;6.286;2023-05-20T00:48:29;9.80;;;2.80;;
15142;SDS011;7672;50.834;6.286;2023-05-20T00:51:06;14.60;;;4.10;;
15142;SDS011;7672;50.834;6.286;2023-05-20T00:53:34;14.20;;;3.07;;
15142;SDS011;7672;50.834;6.286;2023-05-20T00:56:02;13.87;;;3.27;;
15142;SDS011;7672;50.834;6.286;2023-05-20T00:58:30;8.63;;;2.43;;
15142;SDS011;7672;50.834;6.286;2023-05-20T01:00:58;10.23;;;2.87;;
15142;SDS011;7672;50.834;6.286;2023-05-20T01:03:25;11.97;;;3.27;;
15142;SDS011;7672;50.834;6.286;2023-05-20T01:05:53;9.40;;;2.90;;
15142;SDS011;7672;50.834;6.286;2023-05-20T01:08:23;7.80;;;2.97;;
15142;SDS011;7672;50.834;6.286;2023-05-20T01:11:08;7.83;;;3.43;;
15142;SDS011;7672;50.834;6.286;2023-05-20T01:13:57;3.57;;;2.83;;
15142;SDS011;7672;50.834;6.286;2023-05-20T01:16:31;5.63;;;3.33;;
15142;SDS011;7672;50.834;6.286;2023-05-20T01:19:02;6.10;;;2.90;;
15142;SDS011;7672;50.834;6.286;2023-05-20T01:21:42;4.87;;;3.17;;
15142;SDS011;7672;50.834;6.286;2023-05-20T01:24:10;5.33;;;3.40;;
15142;SDS011;7672;50.834;6.286;2023-05-20T01:26:37;8.43;;;3.37;;
15142;SDS011;7672;50.834;6.286;2023-05-20T01:29:05;3.67;;;3.10;;
15142;SDS011;7672;50.834;6.286;2023-05-20T01:31:32;4.50;;;3.50;;
15142;SDS011;7672;50.834;6.286;2023-05-20T01:34:04;5.67;;;3.27;;
15142;SDS011;7672;50.834;6.286;2023-05-20T01:36:32;4.23;;;2.70;;
15142;SDS011;7672;50.834;6.286;2023-05-20T01:38:59;6.97;;;3.03;;
15142;SDS011;7672;50.834;6.286;2023-05-20T01:41:28;4.33;;;2.47;;
15142;SDS011;7672;50.834;6.286;2023-05-20T01:43:57;4.43;;;2.40;;
15142;SDS011;7672;50.834;6.286;2023-05-20T01:46:24;6.90;;;2.50;;
15142;SDS011;7672;50.834;6.286;2023-05-20T01:48:51;4.97;;;2.60;;
15142;SDS011;7672;50.834;6.286;2023-05-20T01:51:18;3.13;;;2.77;;
15142;SDS011;7672;50.834;6.286;2023-05-20T01:53:46;2.53;;;2.00;;
15142;SDS011;7672;50.834;6.286;2023-05-20T01:56:13;6.17;;;2.57;;
15142;SDS011;7672;50.834;6.286;2023-05-20T01:58:40;3.53;;;2.60;;
15142;SDS011;7672;50.834;6.286;2023-05-20T02:01:07;2.80;;;2.50;;
15142;SDS011;7672;50.834;6.286;2023-05-20T02:03:34;3.83;;;2.80;;
15142;SDS011;7672;50.834;6.286;2023-05-20T02:06:01;2.93;;;2.53;;
15142;SDS011;7672;50.834;6.286;2023-05-20T02:08:28;3.40;;;2.70;;
15142;SDS011;7672;50.834;6.286;2023-05-20T02:10:55;5.10;;;2.77;;
15142;SDS011;7672;50.834;6.286;2023-05-20T02:13:22;6.60;;;2.60;;
15142;SDS011;7672;50.834;6.286;2023-05-20T02:15:49;5.90;;;2.73;;
15142;SDS011;7672;50.834;6.286;2023-05-20T02:18:16;5.00;;;2.77;;
15142;SDS011;7672;50.834;6.286;2023-05-20T02:20:45;7.07;;;2.90;;
15142;SDS011;7672;50.834;6.286;2023-05-20T02:23:12;3.77;;;2.67;;
15142;SDS011;7672;50.834;6.286;2023-05-20T02:25:40;7.53;;;3.13;;
15142;SDS011;7672;50.834;6.286;2023-05-20T02:28:08;5.77;;;2.83;;
15142;SDS011;7672;50.834;6.286;2023-05-20T02:30:38;6.33;;;2.90;;
15142;SDS011;7672;50.834;6.286;2023-05-20T02:33:05;7.37;;;2.90;;
15142;SDS011;7672;50.834;6.286;2023-05-20T02:35:35;6.10;;;3.27;;
15142;SDS011;7672;50.834;6.286;2023-05-20T02:38:02;4.67;;;3.00;;
15142;SDS011;7672;50.834;6.286;2023-05-20T02:40:29;5.77;;;3.33;;
15142;SDS011;7672;50.834;6.286;2023-05-20T02:42:56;7.63;;;3.33;;
15142;SDS011;7672;50.834;6.286;2023-05-20T02:45:25;6.87;;;2.97;;
15142;SDS011;7672;50.834;6.286;2023-05-20T02:47:52;5.70;;;2.93;;
15142;SDS011;7672;50.834;6.286;2023-05-20T02:50:19;5.53;;;3.50;;
15142;SDS011;7672;50.834;6.286;2023-05-20T02:52:46;7.93;;;3.23;;
15142;SDS011;7672;50.834;6.286;2023-05-20T02:55:13;5.17;;;3.20;;
15142;SDS011;7672;50.834;6.286;2023-05-20T02:57:42;5.10;;;3.20;;
15142;SDS011;7672;50.834;6.286;2023-05-20T03:00:09;3.83;;;2.93;;
15142;SDS011;7672;50.834;6.286;2023-05-20T03:02:38;5.80;;;3.40;;
15142;SDS011;7672;50.834;6.286;2023-05-20T03:05:06;5.37;;;3.50;;
15142;SDS011;7672;50.834;6.286;2023-05-20T03:07:34;8.53;;;3.33;;
15142;SDS011;7672;50.834;6.286;2023-05-20T03:10:03;5.57;;;2.87;;
15142;SDS011;7672;50.834;6.286;2023-05-20T03:12:32;4.37;;;3.10;;
15142;SDS011;7672;50.834;6.286;2023-05-20T03:14:59;7.20;;;3.43;;
15142;SDS011;7672;50.834;6.286;2023-05-20T03:17:26;5.37;;;3.27;;
15142;SDS011;7672;50.834;6.286;2023-05-20T03:19:55;4.97;;;3.60;;
15142;SDS011;7672;50.834;6.286;2023-05-20T03:22:22;9.10;;;3.50;;
15142;SDS011;7672;50.834;6.286;2023-05-20T03:24:49;7.07;;;3.67;;
15142;SDS011;7672;50.834;6.286;2023-05-20T03:27:18;5.20;;;3.20;;
15142;SDS011;7672;50.834;6.286;2023-05-20T03:29:47;6.60;;;3.17;;
15142;SDS011;7672;50.834;6.286;2023-05-20T03:32:14;4.73;;;3.50;;
15142;SDS011;7672;50.834;6.286;2023-05-20T03:34:41;6.40;;;3.33;;
15142;SDS011;7672;50.834;6.286;2023-05-20T03:37:08;7.10;;;3.60;;
15142;SDS011;7672;50.834;6.286;2023-05-20T03:39:35;5.83;;;3.30;;
15142;SDS011;7672;50.834;6.286;2023-05-20T03:42:03;6.63;;;3.83;;
15142;SDS011;7672;50.834;6.286;2023-05-20T03:44:30;3.73;;;3.30;;
15142;SDS011;7672;50.834;6.286;2023-05-20T03:46:57;4.90;;;3.63;;
15142;SDS011;7672;50.834;6.286;2023-05-20T03:49:24;4.83;;;3.90;;
15142;SDS011;7672;50.834;6.286;2023-05-20T03:51:51;4.23;;;3.60;;
15142;SDS011;7672;50.834;6.286;2023-05-20T03:54:19;9.60;;;3.70;;
15142;SDS011;7672;50.834;6.286;2023-05-20T03:56:49;7.73;;;4.10;;
15142;SDS011;7672;50.834;6.286;2023-05-20T03:59:17;5.27;;;3.40;;
15142;SDS011;7672;50.834;6.286;2023-05-20T04:01:44;6.00;;;3.90;;
15142;SDS011;7672;50.834;6.286;2023-05-20T04:04:12;4.73;;;3.40;;
15142;SDS011;7672;50.834;6.286;2023-05-20T04:06:40;6.93;;;3.47;;
15142;SDS011;7672;50.834;6.286;2023-05-20T04:09:07;5.73;;;3.37;;
15142;SDS011;7672;50.834;6.286;2023-05-20T04:11:34;3.73;;;3.10;;
15142;SDS011;7672;50.834;6.286;2023-05-20T04:14:01;8.70;;;3.50;;
15142;SDS011;7672;50.834;6.286;2023-05-20T04:16:29;6.87;;;3.37;;
15142;SDS011;7672;50.834;6.286;2023-05-20T04:18:56;7.97;;;3.40;;
15142;SDS011;7672;50.834;6.286;2023-05-20T04:21:24;7.70;;;3.50;;
15142;SDS011;7672;50.834;6.286;2023-05-20T04:23:51;5.33;;;3.17;;
15142;SDS011;7672;50.834;6.286;2023-05-20T04:26:19;4.57;;;3.50;;
15142;SDS011;7672;50.834;6.286;2023-05-20T04:28:46;6.50;;;3.33;;
15142;SDS011;7672;50.834;6.286;2023-05-20T04:31:16;5.57;;;3.33;;
15142;SDS011;7672;50.834;6.286;2023-05-20T04:33:44;7.53;;;3.40;;
15142;SDS011;7672;50.834;6.286;2023-05-20T04:36:12;5.10;;;3.67;;
15142;SDS011;7672;50.834;6.286;2023-05-20T04:38:41;4.83;;;3.50;;
15142;SDS011;7672;50.834;6.286;2023-05-20T04:41:09;6.77;;;3.50;;
15142;SDS011;7672;50.834;6.286;2023-05-20T04:43:37;7.37;;;2.77;;
15142;SDS011;7672;50.834;6.286;2023-05-20T04:46:05;4.80;;;3.37;;
15142;SDS011;7672;50.834;6.286;2023-05-20T04:48:33;7.07;;;3.87;;
15142;SDS011;7672;50.834;6.286;2023-05-20T04:51:00;4.00;;;3.30;;
15142;SDS011;7672;50.834;6.286;2023-05-20T04:53:27;4.43;;;3.40;;
15142;SDS011;7672;50.834;6.286;2023-05-20T04:55:55;5.43;;;3.67;;
15142;SDS011;7672;50.834;6.286;2023-05-20T04:58:23;5.63;;;3.40;;
15142;SDS011;7672;50.834;6.286;2023-05-20T05:00:51;5.40;;;3.30;;
15142;SDS011;7672;50.834;6.286;2023-05-20T05:03:18;9.30;;;3.43;;
15142;SDS011;7672;50.834;6.286;2023-05-20T05:05:46;3.80;;;3.17;;
15142;SDS011;7672;50.834;6.286;2023-05-20T05:08:13;3.47;;;3.13;;
15142;SDS011;7672;50.834;6.286;2023-05-20T05:10:47;5.10;;;3.60;;
15142;SDS011;7672;50.834;6.286;2023-05-20T05:13:14;6.53;;;3.93;;
15142;SDS011;7672;50.834;6.286;2023-05-20T05:15:41;6.13;;;3.27;;
15142;SDS011;7672;50.834;6.286;2023-05-20T05:18:10;6.83;;;3.70;;
15142;SDS011;7672;50.834;6.286;2023-05-20T05:20:37;7.30;;;3.50;;
15142;SDS011;7672;50.834;6.286;2023-05-20T05:23:04;5.57;;;3.33;;
15142;SDS011;7672;50.834;6.286;2023-05-20T05:25:32;6.50;;;3.70;;
15142;SDS011;7672;50.834;6.286;2023-05-20T05:28:00;4.20;;;3.40;;
15142;SDS011;7672;50.834;6.286;2023-05-20T05:30:27;6.67;;;3.60;;
15142;SDS011;7672;50.834;6.286;2023-05-20T05:32:54;5.17;;;3.50;;
15142;SDS011;7672;50.834;6.286;2023-05-20T05:35:21;7.70;;;3.57;;
15142;SDS011;7672;50.834;6.286;2023-05-20T05:37:49;3.93;;;3.20;;
15142;SDS011;7672;50.834;6.286;2023-05-20T05:40:16;7.13;;;3.37;;
15142;SDS011;7672;50.834;6.286;2023-05-20T05:42:43;5.83;;;3.93;;
15142;SDS011;7672;50.834;6.286;2023-05-20T05:45:10;7.33;;;3.43;;
15142;SDS011;7672;50.834;6.286;2023-05-20T05:47:38;4.57;;;3.17;;
15142;SDS011;7672;50.834;6.286;2023-05-20T05:50:05;7.50;;;3.70;;
15142;SDS011;7672;50.834;6.286;2023-05-20T05:52:33;6.20;;;3.40;;
15142;SDS011;7672;50.834;6.286;2023-05-20T05:55:02;4.63;;;3.43;;
15142;SDS011;7672;50.834;6.286;2023-05-20T05:57:30;7.00;;;3.67;;
15142;SDS011;7672;50.834;6.286;2023-05-20T05:59:57;5.37;;;3.77;;
15142;SDS011;7672;50.834;6.286;2023-05-20T06:02:28;5.40;;;3.50;;
15142;SDS011;7672;50.834;6.286;2023-05-20T06:04:56;9.43;;;3.63;;
15142;SDS011;7672;50.834;6.286;2023-05-20T06:07:23;4.50;;;3.80;;
15142;SDS011;7672;50.834;6.286;2023-05-20T06:09:50;4.83;;;4.13;;
15142;SDS011;7672;50.834;6.286;2023-05-20T06:12:17;4.87;;;3.50;;
15142;SDS011;7672;50.834;6.286;2023-05-20T06:14:44;6.73;;;3.37;;
15142;SDS011;7672;50.834;6.286;2023-05-20T06:17:11;4.80;;;3.33;;
15142;SDS011;7672;50.834;6.286;2023-05-20T06:19:39;4.47;;;3.80;;
15142;SDS011;7672;50.834;6.286;2023-05-20T06:22:07;6.97;;;3.40;;
15142;SDS011;7672;50.834;6.286;2023-05-20T06:24:34;5.67;;;3.13;;
15142;SDS011;7672;50.834;6.286;2023-05-20T06:27:01;4.47;;;3.53;;
15142;SDS011;7672;50.834;6.286;2023-05-20T06:29:28;5.90;;;3.50;;
15142;SDS011;7672;50.834;6.286;2023-05-20T06:31:56;5.07;;;3.23;;
15142;SDS011;7672;50.834;6.286;2023-05-20T06:34:23;5.00;;;3.23;;
15142;SDS011;7672;50.834;6.286;2023-05-20T06:36:50;3.60;;;3.27;;
15142;SDS011;7672;50.834;6.286;2023-05-20T06:39:18;7.90;;;3.53;;
15142;SDS011;7672;50.834;6.286;2023-05-20T06:41:45;3.90;;;3.60;;
15142;SDS011;7672;50.834;6.286;2023-05-20T06:44:21;5.27;;;3.73;;
15142;SDS011;7672;50.834;6.286;2023-05-20T06:46:56;6.80;;;3.57;;
15142;SDS011;7672;50.834;6.286;2023-05-20T06:49:23;4.63;;;3.67;;
15142;SDS011;7672;50.834;6.286;2023-05-20T06:51:50;4.67;;;3.83;;
15142;SDS011;7672;50.834;6.286;2023-05-20T06:54:17;7.20;;;3.97;;
15142;SDS011;7672;50.834;6.286;2023-05-20T06:56:45;4.27;;;3.43;;
15142;SDS011;7672;50.834;6.286;2023-05-20T06:59:13;6.40;;;3.00;;
15142;SDS011;7672;50.834;6.286;2023-05-20T07:01:41;5.73;;;4.20;;
15142;SDS011;7672;50.834;6.286;2023-05-20T07:04:08;5.90;;;3.70;;
15142;SDS011;7672;50.834;6.286;2023-05-20T07:06:36;5.27;;;3.77;;
15142;SDS011;7672;50.834;6.286;2023-05-20T07:09:03;9.20;;;3.53;;
15142;SDS011;7672;50.834;6.286;2023-05-20T07:11:31;9.47;;;3.67;;
15142;SDS011;7672;50.834;6.286;2023-05-20T07:13:58;4.78;;;3.35;;
15142;SDS011;7672;50.834;6.286;2023-05-20T07:16:26;3.90;;;3.50;;
15142;SDS011;7672;50.834;6.286;2023-05-20T07:18:54;5.13;;;3.55;;
15142;SDS011;7672;50.834;6.286;2023-05-20T07:21:22;5.07;;;3.50;;
15142;SDS011;7672;50.834;6.286;2023-05-20T07:23:57;5.77;;;3.60;;
15142;SDS011;7672;50.834;6.286;2023-05-20T07:26:24;5.93;;;3.40;;
15142;SDS011;7672;50.834;6.286;2023-05-20T07:28:51;5.13;;;3.20;;
15142;SDS011;7672;50.834;6.286;2023-05-20T07:31:18;3.57;;;2.93;;
15142;SDS011;7672;50.834;6.286;2023-05-20T07:33:46;5.93;;;3.80;;
15142;SDS011;7672;50.834;6.286;2023-05-20T07:36:13;7.93;;;3.60;;
15142;SDS011;7672;50.834;6.286;2023-05-20T07:38:44;7.17;;;3.60;;
15142;SDS011;7672;50.834;6.286;2023-05-20T07:41:28;4.87;;;3.90;;
15142;SDS011;7672;50.834;6.286;2023-05-20T07:43:55;4.53;;;3.93;;
15142;SDS011;7672;50.834;6.286;2023-05-20T07:46:23;5.10;;;3.63;;
15142;SDS011;7672;50.834;6.286;2023-05-20T07:48:50;7.50;;;3.97;;
15142;SDS011;7672;50.834;6.286;2023-05-20T07:51:17;6.32;;;3.72;;
15142;SDS011;7672;50.834;6.286;2023-05-20T07:53:44;4.93;;;3.75;;
15142;SDS011;7672;50.834;6.286;2023-05-20T07:56:11;4.13;;;3.63;;
15142;SDS011;7672;50.834;6.286;2023-05-20T07:58:42;4.68;;;3.60;;
15142;SDS011;7672;50.834;6.286;2023-05-20T08:01:23;4.28;;;3.90;;
15142;SDS011;7672;50.834;6.286;2023-05-20T08:03:53;4.18;;;3.75;;
15142;SDS011;7672;50.834;6.286;2023-05-20T08:06:22;4.88;;;4.47;;
15142;SDS011;7672;50.834;6.286;2023-05-20T08:08:52;5.03;;;4.63;;
15142;SDS011;7672;50.834;6.286;2023-05-20T08:11:24;5.75;;;4.60;;
15142;SDS011;7672;50.834;6.286;2023-05-20T08:13:51;4.55;;;4.18;;
15142;SDS011;7672;50.834;6.286;2023-05-20T08:16:21;4.75;;;4.28;;
15142;SDS011;7672;50.834;6.286;2023-05-20T08:18:48;6.60;;;5.03;;
15142;SDS011;7672;50.834;6.286;2023-05-20T08:21:15;5.30;;;4.80;;
15142;SDS011;7672;50.834;6.286;2023-05-20T08:23:42;4.93;;;4.50;;
15142;SDS011;7672;50.834;6.286;2023-05-20T08:26:09;8.60;;;4.80;;
15142;SDS011;7672;50.834;6.286;2023-05-20T08:28:39;6.00;;;4.72;;
15142;SDS011;7672;50.834;6.286;2023-05-20T08:31:06;5.10;;;4.75;;
15142;SDS011;7672;50.834;6.286;2023-05-20T08:33:34;6.20;;;4.72;;
15142;SDS011;7672;50.834;6.286;2023-05-20T08:36:01;5.15;;;4.65;;
15142;SDS011;7672;50.834;6.286;2023-05-20T08:38:29;5.10;;;4.70;;
15142;SDS011;7672;50.834;6.286;2023-05-20T08:40:56;6.15;;;4.40;;
15142;SDS011;7672;50.834;6.286;2023-05-20T08:43:24;5.95;;;4.38;;
15142;SDS011;7672;50.834;6.286;2023-05-20T08:45:52;4.85;;;4.30;;
15142;SDS011;7672;50.834;6.286;2023-05-20T08:48:23;5.28;;;4.75;;
15142;SDS011;7672;50.834;6.286;2023-05-20T08:50:53;4.78;;;4.35;;
15142;SDS011;7672;50.834;6.286;2023-05-20T08:53:23;5.75;;;5.07;;
15142;SDS011;7672;50.834;6.286;2023-05-20T08:55:52;5.50;;;4.60;;
15142;SDS011;7672;50.834;6.286;2023-05-20T08:58:29;5.70;;;4.50;;
15142;SDS011;7672;50.834;6.286;2023-05-20T09:00:57;5.78;;;4.88;;
15142;SDS011;7672;50.834;6.286;2023-05-20T09:03:24;5.55;;;5.13;;
15142;SDS011;7672;50.834;6.286;2023-05-20T09:05:52;7.13;;;5.15;;
15142;SDS011;7672;50.834;6.286;2023-05-20T09:08:28;5.82;;;4.65;;
15142;SDS011;7672;50.834;6.286;2023-05-20T09:10:56;5.30;;;4.80;;
15142;SDS011;7672;50.834;6.286;2023-05-20T09:13:23;5.30;;;4.63;;
15142;SDS011;7672;50.834;6.286;2023-05-20T09:15:50;8.68;;;4.70;;
15142;SDS011;7672;50.834;6.286;2023-05-20T09:18:17;8.63;;;4.63;;
15142;SDS011;7672;50.834;6.286;2023-05-20T09:20:49;6.68;;;4.55;;
15142;SDS011;7672;50.834;6.286;2023-05-20T09:23:18;5.57;;;5.00;;
15142;SDS011;7672;50.834;6.286;2023-05-20T09:25:50;6.72;;;5.22;;
15142;SDS011;7672;50.834;6.286;2023-05-20T09:28:18;5.65;;;5.03;;
15142;SDS011;7672;50.834;6.286;2023-05-20T09:30:55;5.63;;;5.22;;
15142;SDS011;7672;50.834;6.286;2023-05-20T09:33:29;6.03;;;5.43;;
15142;SDS011;7672;50.834;6.286;2023-05-20T09:36:01;9.93;;;5.63;;
15142;SDS011;7672;50.834;6.286;2023-05-20T09:38:41;6.35;;;5.15;;
15142;SDS011;7672;50.834;6.286;2023-05-20T09:41:11;7.00;;;5.57;;
15142;SDS011;7672;50.834;6.286;2023-05-20T09:43:40;7.28;;;5.63;;
15142;SDS011;7672;50.834;6.286;2023-05-20T09:46:08;5.50;;;5.07;;
15142;SDS011;7672;50.834;6.286;2023-05-20T09:48:36;6.03;;;5.40;;
15142;SDS011;7672;50.834;6.286;2023-05-20T09:51:04;5.72;;;5.32;;
15142;SDS011;7672;50.834;6.286;2023-05-20T09:53:33;7.82;;;5.50;;
15142;SDS011;7672;50.834;6.286;2023-05-20T09:56:01;5.70;;;5.20;;
15142;SDS011;7672;50.834;6.286;2023-05-20T09:58:28;5.00;;;4.60;;
15142;SDS011;7672;50.834;6.286;2023-05-20T10:00:56;7.13;;;5.10;;
15142;SDS011;7672;50.834;6.286;2023-05-20T10:03:23;6.90;;;5.13;;
15142;SDS011;7672;50.834;6.286;2023-05-20T10:06:03;5.32;;;4.82;;
15142;SDS011;7672;50.834;6.286;2023-05-20T10:14:30;6.22;;;5.47;;
15142;SDS011;7672;50.834;6.286;2023-05-20T10:17:24;12.73;;;6.07;;
15142;SDS011;7672;50.834;6.286;2023-05-20T10:20:05;5.88;;;5.28;;
15142;SDS011;7672;50.834;6.286;2023-05-20T10:22:40;5.18;;;4.78;;
15142;SDS011;7672;50.834;6.286;2023-05-20T10:25:10;8.45;;;5.10;;
15142;SDS011;7672;50.834;6.286;2023-05-20T10:27:49;5.93;;;5.32;;
15142;SDS011;7672;50.834;6.286;2023-05-20T10:30:17;6.57;;;5.70;;
15142;SDS011;7672;50.834;6.286;2023-05-20T10:32:53;5.60;;;5.00;;
15142;SDS011;7672;50.834;6.286;2023-05-20T10:35:23;5.20;;;4.75;;
15142;SDS011;7672;50.834;6.286;2023-05-20T10:38:05;5.45;;;4.95;;
15142;SDS011;7672;50.834;6.286;2023-05-20T10:40:38;5.22;;;4.65;;
15142;SDS011;7672;50.834;6.286;2023-05-20T10:43:09;5.15;;;4.75;;
15142;SDS011;7672;50.834;6.286;2023-05-20T10:45:51;5.05;;;4.55;;
15142;SDS011;7672;50.834;6.286;2023-05-20T10:48:24;5.53;;;4.90;;
15142;SDS011;7672;50.834;6.286;2023-05-20T10:50:58;7.30;;;4.43;;
15142;SDS011;7672;50.834;6.286;2023-05-20T10:53:38;7.20;;;5.35;;
15142;SDS011;7672;50.834;6.286;2023-05-20T10:56:16;6.18;;;5.00;;
15142;SDS011;7672;50.834;6.286;2023-05-20T10:58:45;7.07;;;5.38;;
15142;SDS011;7672;50.834;6.286;2023-05-20T11:01:14;7.03;;;5.40;;
15142;SDS011;7672;50.834;6.286;2023-05-20T11:03:44;10.63;;;5.32;;
15142;SDS011;7672;50.834;6.286;2023-05-20T11:06:14;5.80;;;5.18;;
15142;SDS011;7672;50.834;6.286;2023-05-20T11:08:44;8.07;;;5.20;;
15142;SDS011;7672;50.834;6.286;2023-05-20T11:11:12;5.82;;;4.80;;
15142;SDS011;7672;50.834;6.286;2023-05-20T11:13:40;7.15;;;5.03;;
15142;SDS011;7672;50.834;6.286;2023-05-20T11:16:07;6.18;;;4.78;;
15142;SDS011;7672;50.834;6.286;2023-05-20T11:18:35;5.43;;;4.95;;
15142;SDS011;7672;50.834;6.286;2023-05-20T11:21:02;8.18;;;5.47;;
15142;SDS011;7672;50.834;6.286;2023-05-20T11:23:29;4.97;;;4.47;;
15142;SDS011;7672;50.834;6.286;2023-05-20T11:25:56;5.32;;;4.82;;
15142;SDS011;7672;50.834;6.286;2023-05-20T11:28:24;5.80;;;4.85;;
15142;SDS011;7672;50.834;6.286;2023-05-20T11:30:51;6.82;;;5.38;;
15142;SDS011;7672;50.834;6.286;2023-05-20T11:33:19;5.68;;;5.18;;
15142;SDS011;7672;50.834;6.286;2023-05-20T11:35:51;6.97;;;5.20;;
15142;SDS011;7672;50.834;6.286;2023-05-20T11:38:20;6.15;;;5.07;;
15142;SDS011;7672;50.834;6.286;2023-05-20T11:40:51;6.00;;;5.50;;
15142;SDS011;7672;50.834;6.286;2023-05-20T11:43:21;7.90;;;5.32;;
15142;SDS011;7672;50.834;6.286;2023-05-20T11:45:56;8.27;;;5.70;;
15142;SDS011;7672;50.834;6.286;2023-05-20T11:48:25;8.68;;;5.68;;
15142;SDS011;7672;50.834;6.286;2023-05-20T11:50:53;5.40;;;4.97;;
15142;SDS011;7672;50.834;6.286;2023-05-20T11:53:21;7.40;;;5.82;;
15142;SDS011;7672;50.834;6.286;2023-05-20T11:55:51;6.70;;;6.00;;
15142;SDS011;7672;50.834;6.286;2023-05-20T11:58:28;6.10;;;5.18;;
15142;SDS011;7672;50.834;6.286;2023-05-20T12:00:56;9.00;;;5.90;;
15142;SDS011;7672;50.834;6.286;2023-05-20T12:03:44;6.95;;;6.22;;
15142;SDS011;7672;50.834;6.286;2023-05-20T12:06:11;8.30;;;5.90;;
15142;SDS011;7672;50.834;6.286;2023-05-20T12:08:38;6.60;;;5.95;;
15142;SDS011;7672;50.834;6.286;2023-05-20T12:11:06;9.32;;;5.40;;
15142;SDS011;7672;50.834;6.286;2023-05-20T12:13:33;6.28;;;5.65;;
15142;SDS011;7672;50.834;6.286;2023-05-20T12:16:01;7.43;;;5.53;;
15142;SDS011;7672;50.834;6.286;2023-05-20T12:18:29;6.60;;;5.95;;
15142;SDS011;7672;50.834;6.286;2023-05-20T12:20:59;7.70;;;6.05;;
15142;SDS011;7672;50.834;6.286;2023-05-20T12:23:27;8.20;;;6.20;;
15142;SDS011;7672;50.834;6.286;2023-05-20T12:25:56;6.80;;;4.85;;
15142;SDS011;7672;50.834;6.286;2023-05-20T12:28:23;6.25;;;5.65;;
15142;SDS011;7672;50.834;6.286;2023-05-20T12:30:50;6.50;;;5.80;;
15142;SDS011;7672;50.834;6.286;2023-05-20T12:33:17;5.82;;;5.25;;
15142;SDS011;7672;50.834;6.286;2023-05-20T12:35:46;9.20;;;5.78;;
15142;SDS011;7672;50.834;6.286;2023-05-20T12:38:13;7.60;;;5.90;;
15142;SDS011;7672;50.834;6.286;2023-05-20T12:40:40;8.38;;;5.80;;
15142;SDS011;7672;50.834;6.286;2023-05-20T12:43:07;8.38;;;6.13;;
15142;SDS011;7672;50.834;6.286;2023-05-20T12:45:34;6.68;;;5.97;;
15142;SDS011;7672;50.834;6.286;2023-05-20T12:48:01;7.05;;;5.45;;
15142;SDS011;7672;50.834;6.286;2023-05-20T12:50:29;7.22;;;6.50;;
15142;SDS011;7672;50.834;6.286;2023-05-20T12:52:56;10.23;;;6.15;;
15142;SDS011;7672;50.834;6.286;2023-05-20T12:55:24;7.13;;;6.20;;
15142;SDS011;7672;50.834;6.286;2023-05-20T12:57:51;6.63;;;6.00;;
15142;SDS011;7672;50.834;6.286;2023-05-20T13:00:18;7.50;;;6.53;;
15142;SDS011;7672;50.834;6.286;2023-05-20T13:02:45;6.18;;;5.57;;
15142;SDS011;7672;50.834;6.286;2023-05-20T13:05:12;7.70;;;6.75;;
15142;SDS011;7672;50.834;6.286;2023-05-20T13:07:40;6.88;;;6.25;;
15142;SDS011;7672;50.834;6.286;2023-05-20T13:10:07;7.43;;;6.72;;
15142;SDS011;7672;50.834;6.286;2023-05-20T13:12:36;6.90;;;6.30;;
15142;SDS011;7672;50.834;6.286;2023-05-20T13:15:03;6.90;;;6.25;;
15142;SDS011;7672;50.834;6.286;2023-05-20T13:17:31;8.35;;;6.40;;
15142;SDS011;7672;50.834;6.286;2023-05-20T13:19:59;6.95;;;5.93;;
15142;SDS011;7672;50.834;6.286;2023-05-20T13:22:26;8.23;;;6.13;;
15142;SDS011;7672;50.834;6.286;2023-05-20T13:24:53;6.72;;;6.05;;
15142;SDS011;7672;50.834;6.286;2023-05-20T13:27:20;7.43;;;5.80;;
15142;SDS011;7672;50.834;6.286;2023-05-20T13:29:47;7.80;;;6.47;;
15142;SDS011;7672;50.834;6.286;2023-05-20T13:32:14;9.07;;;6.55;;
15142;SDS011;7672;50.834;6.286;2023-05-20T13:34:41;6.68;;;6.07;;
15142;SDS011;7672;50.834;6.286;2023-05-20T13:37:09;10.23;;;6.53;;
15142;SDS011;7672;50.834;6.286;2023-05-20T13:39:36;15.98;;;6.45;;
15142;SDS011;7672;50.834;6.286;2023-05-20T13:42:03;8.85;;;6.10;;
15142;SDS011;7672;50.834;6.286;2023-05-20T13:44:30;6.18;;;5.70;;
15142;SDS011;7672;50.834;6.286;2023-05-20T13:46:58;7.07;;;6.30;;
15142;SDS011;7672;50.834;6.286;2023-05-20T13:49:25;7.43;;;6.72;;
15142;SDS011;7672;50.834;6.286;2023-05-20T13:51:52;8.75;;;6.78;;
15142;SDS011;7672;50.834;6.286;2023-05-20T13:54:19;7.32;;;6.45;;
15142;SDS011;7672;50.834;6.286;2023-05-20T13:56:47;7.68;;;5.63;;
15142;SDS011;7672;50.834;6.286;2023-05-20T13:59:14;7.32;;;5.53;;
15142;SDS011;7672;50.834;6.286;2023-05-20T14:01:41;9.82;;;6.55;;
15142;SDS011;7672;50.834;6.286;2023-05-20T14:04:11;7.72;;;6.43;;
15142;SDS011;7672;50.834;6.286;2023-05-20T14:06:38;8.98;;;6.63;;
15142;SDS011;7672;50.834;6.286;2023-05-20T14:09:06;7.20;;;6.55;;
15142;SDS011;7672;50.834;6.286;2023-05-20T14:11:34;7.95;;;6.38;;
15142;SDS011;7672;50.834;6.286;2023-05-20T14:14:01;7.40;;;6.70;;
15142;SDS011;7672;50.834;6.286;2023-05-20T14:16:29;7.60;;;6.90;;
15142;SDS011;7672;50.834;6.286;2023-05-20T14:18:57;7.22;;;6.28;;
15142;SDS011;7672;50.834;6.286;2023-05-20T14:21:24;8.07;;;6.65;;
15142;SDS011;7672;50.834;6.286;2023-05-20T14:23:51;7.22;;;6.63;;
15142;SDS011;7672;50.834;6.286;2023-05-20T14:26:18;7.88;;;6.32;;
15142;SDS011;7672;50.834;6.286;2023-05-20T14:28:47;7.40;;;6.35;;
15142;SDS011;7672;50.834;6.286;2023-05-20T14:31:14;6.82;;;6.00;;
15142;SDS011;7672;50.834;6.286;2023-05-20T14:33:41;7.18;;;6.47;;
15142;SDS011;7672;50.834;6.286;2023-05-20T14:36:09;6.70;;;6.10;;
15142;SDS011;7672;50.834;6.286;2023-05-20T14:38:36;8.52;;;6.20;;
15142;SDS011;7672;50.834;6.286;2023-05-20T14:41:03;8.02;;;6.40;;
15142;SDS011;7672;50.834;6.286;2023-05-20T14:43:30;7.65;;;6.95;;
15142;SDS011;7672;50.834;6.286;2023-05-20T14:45:58;8.23;;;5.93;;
15142;SDS011;7672;50.834;6.286;2023-05-20T14:48:25;7.28;;;6.68;;
15142;SDS011;7672;50.834;6.286;2023-05-20T14:50:52;6.75;;;6.15;;
15142;SDS011;7672;50.834;6.286;2023-05-20T14:53:19;6.10;;;5.50;;
15142;SDS011;7672;50.834;6.286;2023-05-20T14:55:47;6.67;;;5.97;;
15142;SDS011;7672;50.834;6.286;2023-05-20T14:58:14;7.67;;;6.37;;
15142;SDS011;7672;50.834;6.286;2023-05-20T15:00:41;5.95;;;5.43;;
15142;SDS011;7672;50.834;6.286;2023-05-20T15:03:08;7.95;;;7.15;;
15142;SDS011;7672;50.834;6.286;2023-05-20T15:05:37;7.38;;;6.68;;
15142;SDS011;7672;50.834;6.286;2023-05-20T15:08:04;8.07;;;7.07;;
15142;SDS011;7672;50.834;6.286;2023-05-20T15:10:31;8.68;;;6.53;;
15142;SDS011;7672;50.834;6.286;2023-05-20T15:12:59;6.45;;;5.85;;
15142;SDS011;7672;50.834;6.286;2023-05-20T15:15:26;6.17;;;5.60;;